« 懐古蔵出:年の瀬 東京国際空港 2001/12/29 sat | トップページ | 懐古蔵出:年始 富山・東京国際空港 2002/1/3 thu »

2020/06/27

定点 富山空港 2020/6/27 sat

飛来機が少ない空港は、先輩達のテリトリと化してきています。

20200627_rjnt_00bird

俺の縄張りに勝ってに入るなよ!

RJNT 270000Z 26004KT 230V300 9999 FEW015 BKN/// 26/18 Q1006

20200627_rjnt_01ja211a

20200627_rjnt_02ja211a

ANA313 RJTT-RJNT JA211A A320-271N

20200627_rjnt_03ja211a

リバーサーが開く時の「グワー」って音が特徴です。

20200627_rjnt_04ja17ac

JA17AC A109SP SAK 富山県ドクターヘリ

20200627_rjnt_05ja211a

お見送りは続いています。

20200627_rjnt_06ja211a

20200627_rjnt_07ja211a

やっぱり空を飛ぶことは、イイことだ。

20200627_rjnt_08ja211a

20200627_rjnt_09ja211a

この時期だけの特等席。やっばり手を止めるよね。

20200627_rjnt_10ja211a

ANA316 RJNT-RJTT JA211A A320-271N

20200627_rjnt_11gse

さぁ、帰るぞ。水撒きしながら撤収。

20200627_rjnt_12gse

そして、誰もいなくなった。

RJNT 270100Z 26006KT 220V290 9999 FEW025 BKN/// 27/19 Q1006

20200627_rjnt_13jg

ハンターさん高空を東へ通過

RJNT 270200Z 25004KT 170V320 9999 FEW025 BKN/// 28/19 Q1006

20200627_rjnt_14ja201m

JA201M PA-28RT-201T 本日のお客様

RJNT 270400Z 26007KT 9999 FEW030 OVC/// 28/20 Q1005

20200627_rjnt_15ja201m

富山でランチ・・ ありがとうございました。

20200627_rjnt_16ja201m

脚、引っ込むのよ。

20200627_rjnt_18jn515

JN515 長時間パトロールの海鷲さんがお帰り。

 

|

« 懐古蔵出:年の瀬 東京国際空港 2001/12/29 sat | トップページ | 懐古蔵出:年始 富山・東京国際空港 2002/1/3 thu »

富山空港」カテゴリの記事

コメント

コメントを書く



(ウェブ上には掲載しません)


コメントは記事投稿者が公開するまで表示されません。



« 懐古蔵出:年の瀬 東京国際空港 2001/12/29 sat | トップページ | 懐古蔵出:年始 富山・東京国際空港 2002/1/3 thu »